This is the latest recevied weather packets stored in our database for station/object SQ7FJB-2. If no packets are shown the sender has not sent any weather packets the latest 10 day(s).
| Time | Temp. | Humidity | Pressure | Rain* | Wind** | Luminosity | Snow |
|---|---|---|---|---|---|---|---|
| 1778108254 | 13.89° C | 88% | 1005.2 hPa | 0 mm | - | - | - |
| 1778107654 | 13.89° C | 88% | 1005.2 hPa | 0 mm | - | - | - |
| 1778107054 | 13.89° C | 86% | 1005.3 hPa | 0 mm | - | - | - |
| 1778106454 | 13.89° C | 85% | 1005.2 hPa | 0.25 mm | - | - | - |
| 1778105854 | 14.44° C | 83% | 1005.2 hPa | 0.25 mm | - | - | - |
| 1778105242 | 15° C | 80% | 1005.6 hPa | 0.25 mm | - | - | - |
| 1778104641 | 15° C | 76% | 1005.6 hPa | 0.25 mm | - | - | - |
| 1778104041 | 15° C | 77% | 1005.1 hPa | 0.25 mm | - | - | - |
| 1778103429 | 16.11° C | 70% | 1005.4 hPa | 0 mm | - | - | - |
| 1778102816 | 17.22° C | 59% | 1004.8 hPa | 0 mm | - | - | - |
| 1778102204 | 17.22° C | 58% | 1004.6 hPa | 0 mm | - | - | - |
| 1778101604 | 16.67° C | 61% | 1004.7 hPa | 0 mm | - | - | - |
| 1778100991 | 16.67° C | 63% | 1004.7 hPa | 0 mm | - | - | - |
| 1778100379 | 15° C | 68% | 1004.5 hPa | 0 mm | - | - | - |
| 1778099767 | 14.44° C | 79% | 1004.5 hPa | 0 mm | - | - | - |
| 1778099155 | 14.44° C | 77% | 1004.6 hPa | 0 mm | - | - | - |
| 1778098554 | 14.44° C | 78% | 1004.6 hPa | 0 mm | - | - | - |
| 1778097954 | 14.44° C | 77% | 1004.6 hPa | 0 mm | - | - | - |
| 1778097344 | 15° C | 76% | 1004.7 hPa | 0 mm | - | - | - |
| 1778096730 | 15° C | 75% | 1004.7 hPa | 0 mm | - | - | - |
| 1778096130 | 15° C | 74% | 1004.8 hPa | 0 mm | - | - | - |
| 1778095518 | 15° C | 76% | 1004.8 hPa | 0 mm | - | - | - |
| 1778094905 | 15.56° C | 75% | 1004.6 hPa | 0 mm | - | - | - |
| 1778094304 | 15.56° C | 73% | 1004.7 hPa | 0 mm | - | - | - |
| 1778093705 | 16.11° C | 73% | 1004.5 hPa | 0 mm | - | - | - |
* Rain latest hour (hover to see other rain measurements)
** Current wind speed in m/s (hover to see current wind gust speed)